createdAt,value
2023-05-19T00:00:51.072Z,61655.63
2023-05-19T00:05:55.719Z,61632.56
2023-05-19T00:10:59.102Z,61613.19
2023-05-19T00:16:03.690Z,61596.38
2023-05-19T00:21:06.491Z,61619.13
2023-05-19T00:26:09.139Z,61610.31
2023-05-19T00:31:13.189Z,61628.53
2023-05-19T00:36:16.014Z,61638.31
2023-05-19T00:41:19.006Z,61600.91
2023-05-19T00:46:23.109Z,61627.22
2023-05-19T00:51:29.666Z,61600.53
2023-05-19T00:56:32.832Z,61625.66
2023-05-19T01:01:37.245Z,61590.28
2023-05-19T01:06:40.166Z,61570.53
2023-05-19T01:11:43.328Z,61563.41
2023-05-19T01:16:56.579Z,61581.44
2023-05-19T01:22:24.025Z,61576.63
2023-05-19T01:27:45.472Z,61565.22
2023-05-19T01:32:50.204Z,61590.16
2023-05-19T01:37:55.447Z,61566.63
2023-05-19T01:43:00.193Z,61534.50
2023-05-19T01:48:05.767Z,61552.53
2023-05-19T01:53:09.592Z,61500.56
2023-05-19T01:58:22.507Z,61523.25
2023-05-19T02:03:38.418Z,61530.28
2023-05-19T02:08:44.521Z,61527.09
2023-05-19T02:13:51.372Z,61532.28
2023-05-19T02:18:56.555Z,61501.19
2023-05-19T02:23:59.272Z,61550.91
2023-05-19T02:29:01.863Z,61507.38
2023-05-19T02:34:06.137Z,61522.81
2023-05-19T02:39:08.828Z,61532.44
2023-05-19T02:44:11.534Z,61507.81
2023-05-19T02:49:15.755Z,61518.50
2023-05-19T02:54:18.519Z,61509.41
2023-05-19T02:59:22.051Z,61510.22
2023-05-19T03:04:26.848Z,61510.63
2023-05-19T03:09:29.546Z,61518.84
2023-05-19T03:14:33.956Z,61487.19
2023-05-19T03:19:38.071Z,61486.41
2023-05-19T03:24:41.010Z,61481.13
2023-05-19T03:29:43.649Z,61492.31
2023-05-19T03:34:47.734Z,61475.22
2023-05-19T03:39:51.793Z,61494.56
2023-05-19T03:44:54.498Z,61492.63
2023-05-19T03:49:58.552Z,61479.25
2023-05-19T03:55:01.212Z,61512.47
2023-05-19T04:00:06.093Z,61492.59
2023-05-19T04:05:11.659Z,61542.13
2023-05-19T04:10:14.669Z,61564.69
2023-05-19T04:15:17.504Z,61547.25
2023-05-19T04:20:21.573Z,61559.38
2023-05-19T04:25:25.204Z,61581.50
2023-05-19T04:30:28.629Z,61591.19
2023-05-19T04:35:32.741Z,61599.94
2023-05-19T04:40:35.504Z,61629.59
2023-05-19T04:45:42.449Z,61646.25
2023-05-19T04:50:48.778Z,61751.22
2023-05-19T04:55:51.625Z,61840.13
2023-05-19T05:00:55.706Z,61821.59
2023-05-19T05:05:59.969Z,61844.75
2023-05-19T05:11:03.153Z,61887.84
2023-05-19T05:16:08.367Z,61945.28
2023-05-19T05:21:13.394Z,62018.38
2023-05-19T05:26:19.668Z,62097.50
2023-05-19T05:31:22.428Z,62198.13
2023-05-19T05:36:26.514Z,62313.78
2023-05-19T05:41:35.010Z,62364.88
2023-05-19T05:46:38.139Z,62465.44
2023-05-19T05:51:48.454Z,62449.38
2023-05-19T05:56:57.747Z,62579.63
2023-05-19T06:02:00.885Z,62658.16
2023-05-19T06:07:05.147Z,62724.94
2023-05-19T06:12:08.226Z,62648.09
2023-05-19T06:17:10.895Z,62643.13
2023-05-19T06:22:14.991Z,62607.94
2023-05-19T06:27:17.676Z,62642.22
2023-05-19T06:32:20.400Z,62763.94
2023-05-19T06:37:25.081Z,62853.34
2023-05-19T06:42:28.802Z,62861.09
2023-05-19T06:47:31.605Z,62924.28
2023-05-19T06:52:35.582Z,62949.00
2023-05-19T06:57:38.386Z,62966.34
2023-05-19T07:02:41.184Z,62927.16
2023-05-19T07:07:45.290Z,62989.34
2023-05-19T07:12:48.000Z,63082.88
2023-05-19T07:17:50.839Z,63189.47
2023-05-19T07:22:54.880Z,63124.75
2023-05-19T07:27:57.740Z,63182.78
2023-05-19T07:33:00.600Z,63177.56
2023-05-19T07:38:04.677Z,63293.81
2023-05-19T07:43:07.406Z,63216.34
2023-05-19T07:48:10.179Z,63287.25
2023-05-19T07:53:14.204Z,63333.00
2023-05-19T07:58:17.456Z,63297.03
2023-05-19T08:03:20.676Z,63365.13
2023-05-19T08:08:25.177Z,63404.91
2023-05-19T08:13:27.933Z,63467.16
2023-05-19T08:18:30.656Z,63381.78
2023-05-19T08:23:34.759Z,63360.03
2023-05-19T08:28:37.422Z,63406.47
2023-05-19T08:33:40.113Z,63459.75
2023-05-19T08:38:44.307Z,63410.81
2023-05-19T08:43:46.913Z,63475.16
2023-05-19T08:48:50.508Z,63393.50
2023-05-19T08:54:01.172Z,63367.72
2023-05-19T08:59:04.155Z,63193.53
2023-05-19T09:04:07.928Z,63297.56
2023-05-19T09:09:12.482Z,63358.31
2023-05-19T09:14:15.066Z,63397.13
2023-05-19T09:19:17.900Z,63498.13
2023-05-19T09:24:26.674Z,63632.59
2023-05-19T09:29:29.324Z,63528.41
2023-05-19T09:34:32.072Z,63621.78
2023-05-19T09:39:36.177Z,63634.66
2023-05-19T09:44:38.813Z,63684.94
2023-05-19T09:49:48.463Z,63671.06
2023-05-19T09:54:52.699Z,63724.41
2023-05-19T09:59:58.120Z,63676.19
2023-05-19T10:05:02.572Z,63606.03
2023-05-19T10:10:12.599Z,63604.19
2023-05-19T10:15:20.566Z,63643.63
2023-05-19T10:20:27.762Z,63471.19
2023-05-19T10:25:39.623Z,63232.28
2023-05-19T10:30:46.896Z,63228.75
2023-05-19T10:36:14.399Z,63426.66
2023-05-19T10:41:28.785Z,63531.81
2023-05-19T11:01:10.817Z,684.7377
2023-05-19T11:06:19.069Z,685.7941
2023-05-19T11:11:19.775Z,685.402
2023-05-19T11:17:38.726Z,686.4196
2023-05-19T11:22:38.779Z,685.7085
2023-05-19T11:27:38.488Z,687.9389
2023-05-19T11:32:39.108Z,687.764
2023-05-19T11:37:36.960Z,687.2786
2023-05-19T11:48:00.842Z,686.9405
2023-05-19T11:52:41.766Z,686.9336
2023-05-19T11:57:44.726Z,686.9838
2023-05-19T12:32:13.918Z,688.4986
2023-05-19T12:37:14.451Z,689.7173
2023-05-19T12:44:40.418Z,689.0013
2023-05-19T12:52:32.543Z,687.5552
2023-05-19T13:00:17.655Z,688.5576
2023-05-19T13:06:14.455Z,688.2547
2023-05-19T13:28:59.516Z,688.2305
2023-05-19T13:36:27.818Z,698.2748
2023-05-19T13:41:30.649Z,699.4915
2023-05-19T13:46:40.596Z,701.3736
2023-05-19T13:51:27.818Z,695.7856
2023-05-19T13:56:27.801Z,697.4127
2023-05-19T14:01:27.833Z,700.6726
2023-05-19T14:06:27.882Z,699.78
2023-05-19T14:11:27.842Z,699.7576
2023-05-19T14:16:28.711Z,699.4269
2023-05-19T14:21:28.240Z,700.8416
2023-05-19T14:26:29.212Z,700.0759
2023-05-19T14:31:28.078Z,696.4673
2023-05-19T14:36:27.917Z,698.3373
2023-05-19T14:41:27.893Z,698.3091
2023-05-19T14:46:28.027Z,699.5281
2023-05-19T14:51:27.949Z,699.5067
2023-05-19T14:56:27.919Z,698.9846
2023-05-19T15:01:28.033Z,699.9282
2023-05-19T15:06:27.854Z,700.3661
2023-05-19T15:11:28.145Z,703.502
2023-05-19T15:16:27.922Z,699.2009
2023-05-19T15:21:28.170Z,697.1503
2023-05-19T15:26:29.654Z,695.8492
2023-05-19T15:31:27.947Z,699.2585
2023-05-19T15:36:27.947Z,701.5486
2023-05-19T15:41:27.888Z,700.082
2023-05-19T15:46:28.007Z,699.5181
2023-05-19T15:51:28.110Z,695.1688
2023-05-19T15:56:27.945Z,694.6075
2023-05-19T16:01:27.959Z,695.5032
2023-05-19T16:06:28.369Z,697.91
2023-05-19T16:11:28.096Z,697.0068
2023-05-19T16:16:27.978Z,697.1304
2023-05-19T16:21:27.954Z,698.6873
2023-05-19T16:26:28.850Z,699.0323
2023-05-19T16:31:28.008Z,701.4164
2023-05-19T16:36:27.946Z,700.2583
2023-05-19T16:41:28.000Z,697.0252
2023-05-19T16:46:29.193Z,695.6583
2023-05-19T16:51:28.077Z,698.1994
2023-05-19T16:56:28.013Z,697.9766
2023-05-19T17:01:28.065Z,693.5132
2023-05-19T17:06:27.986Z,689.8522
2023-05-19T17:11:28.018Z,687.072
2023-05-19T17:16:28.081Z,686.0676
2023-05-19T17:21:27.965Z,686.7721
2023-05-19T17:26:27.967Z,686.8483
2023-05-19T17:31:28.158Z,690.0034
2023-05-19T17:36:28.093Z,689.4493
2023-05-19T17:41:28.065Z,687.3345
2023-05-19T17:46:30.170Z,685.0928
2023-05-19T17:51:28.339Z,683.3233
2023-05-19T17:56:28.330Z,683.0639
2023-05-19T18:01:28.455Z,683.1942
2023-05-19T18:06:29.023Z,682.2953
2023-05-19T18:11:28.402Z,682.4355
2023-05-19T18:16:29.299Z,680.5073
2023-05-19T18:21:28.154Z,679.6028
2023-05-19T18:26:28.194Z,678.7766
2023-05-19T18:31:28.291Z,678.3834
2023-05-19T18:36:28.182Z,677.1777
2023-05-19T18:41:28.105Z,676.7875
2023-05-19T18:46:28.162Z,675.8855
2023-05-19T18:51:28.178Z,675.1222
2023-05-19T18:56:31.394Z,674.2899
2023-05-19T19:01:28.262Z,673.9186
2023-05-19T19:06:28.152Z,672.9664
2023-05-19T19:11:28.081Z,672.9989
2023-05-19T19:16:28.135Z,672.7881
2023-05-19T19:21:29.660Z,670.8588
2023-05-19T19:26:29.032Z,670.0308
2023-05-19T19:31:29.611Z,669.2732
2023-05-19T19:36:28.198Z,668.6763
2023-05-19T19:41:29.690Z,667.3597
2023-05-19T19:46:28.206Z,666.9715
2023-05-19T19:51:28.220Z,667.2363
2023-05-19T19:56:28.487Z,666.3074
2023-05-19T20:01:28.316Z,665.8681
2023-05-19T20:06:28.151Z,666.1504
2023-05-19T20:11:28.264Z,665.1785
2023-05-19T20:16:28.240Z,665.3992
2023-05-19T20:21:28.235Z,665.0336
2023-05-19T20:26:29.087Z,664.1567
2023-05-19T20:31:28.179Z,663.6775
2023-05-19T20:36:28.155Z,663.8259
2023-05-19T20:41:28.146Z,664.8855
2023-05-19T20:46:28.199Z,664.9241
2023-05-19T20:51:28.777Z,664.4863
2023-05-19T20:56:28.171Z,664.6914
2023-05-19T21:01:29.753Z,663.8918
2023-05-19T21:06:28.153Z,664.3072
2023-05-19T21:11:28.164Z,664.8175
2023-05-19T21:16:28.337Z,664.4266
2023-05-19T21:21:28.290Z,663.4483
2023-05-19T21:26:28.310Z,663.6609
2023-05-19T21:31:28.647Z,662.8214
2023-05-19T21:36:28.385Z,663.2715
2023-05-19T21:41:28.359Z,662.113
2023-05-19T21:46:29.233Z,662.4453
2023-05-19T21:51:29.105Z,661.4328
2023-05-19T21:56:28.603Z,661.4133
2023-05-19T22:01:28.357Z,661.3309
2023-05-19T22:06:28.375Z,661.348
2023-05-19T22:11:28.325Z,660.4215
2023-05-19T22:16:28.494Z,660.8694
2023-05-19T22:21:28.389Z,659.9561
2023-05-19T22:26:28.343Z,659.8942
2023-05-19T22:31:28.372Z,659.7698
2023-05-19T22:36:28.350Z,659.5439
2023-05-19T22:41:28.376Z,659.021
2023-05-19T22:46:28.414Z,658.7399
2023-05-19T22:51:28.408Z,658.8444
2023-05-19T22:56:28.378Z,658.3976
2023-05-19T23:01:28.433Z,658.7665
2023-05-19T23:06:28.321Z,658.6406
2023-05-19T23:11:28.375Z,658.5854
2023-05-19T23:16:28.405Z,657.7377
2023-05-19T23:21:28.402Z,658.1412
2023-05-19T23:26:28.414Z,658.2536
2023-05-19T23:31:28.472Z,658.1996
2023-05-19T23:36:28.333Z,657.9342
2023-05-19T23:41:28.372Z,657.9955
2023-05-19T23:46:28.434Z,658.1716
2023-05-19T23:51:28.455Z,658.3741
2023-05-19T23:56:28.500Z,658.2933
